createdAt,value
2023-01-17T00:02:24.053Z,27.50
2023-01-17T00:04:52.345Z,27.50
2023-01-17T00:07:22.904Z,27.40
2023-01-17T00:09:51.058Z,27.40
2023-01-17T00:12:20.958Z,27.40
2023-01-17T00:14:49.470Z,27.40
2023-01-17T00:17:17.826Z,27.40
2023-01-17T00:19:46.061Z,27.40
2023-01-17T00:22:29.367Z,27.40
2023-01-17T00:24:57.606Z,27.40
2023-01-17T00:27:25.921Z,27.40
2023-01-17T00:29:54.128Z,27.30
2023-01-17T00:32:22.286Z,27.30
2023-01-17T00:34:50.620Z,27.20
2023-01-17T00:37:18.717Z,27.10
2023-01-17T00:39:47.043Z,27.10
2023-01-17T00:42:15.421Z,27.00
2023-01-17T00:44:44.196Z,27.00
2023-01-17T00:47:12.441Z,27.00
2023-01-17T00:49:40.771Z,26.90
2023-01-17T00:52:08.927Z,26.90
2023-01-17T00:54:37.303Z,26.80
2023-01-17T00:57:07.207Z,26.80
2023-01-17T00:59:35.588Z,26.80
2023-01-17T01:02:04.249Z,26.80
2023-01-17T01:04:32.649Z,26.70
2023-01-17T01:07:00.996Z,26.80
2023-01-17T01:09:29.225Z,26.80
2023-01-17T01:11:57.636Z,26.70
2023-01-17T01:14:25.833Z,26.70
2023-01-17T01:16:54.067Z,26.70
2023-01-17T01:19:22.310Z,26.70
2023-01-17T01:21:51.534Z,26.70
2023-01-17T01:24:19.823Z,26.70
2023-01-17T01:26:48.096Z,26.70
2023-01-17T01:29:16.255Z,26.60
2023-01-17T01:31:44.517Z,26.50
2023-01-17T01:34:12.967Z,26.60
2023-01-17T01:36:41.193Z,26.60
2023-01-17T01:39:09.370Z,26.50
2023-01-17T01:41:37.653Z,26.50
2023-01-17T01:44:26.085Z,26.40
2023-01-17T01:46:54.491Z,26.40
2023-01-17T01:49:26.172Z,26.40
2023-01-17T01:52:01.988Z,26.50
2023-01-17T01:55:00.749Z,26.60
2023-01-17T01:57:35.232Z,26.60
2023-01-17T02:00:08.355Z,26.60
2023-01-17T02:02:41.579Z,26.60
2023-01-17T02:05:11.610Z,26.60
2023-01-17T02:07:55.134Z,26.60
2023-01-17T02:10:23.358Z,26.60
2023-01-17T02:12:53.810Z,26.60
2023-01-17T02:15:26.662Z,26.60
2023-01-17T02:18:17.326Z,26.60
2023-01-17T02:21:03.788Z,26.60
2023-01-17T02:23:35.221Z,26.60
2023-01-17T02:26:25.386Z,26.50
2023-01-17T02:28:56.666Z,26.60
2023-01-17T02:31:34.441Z,26.50
2023-01-17T02:34:16.114Z,26.60
2023-01-17T02:36:52.433Z,26.50
2023-01-17T02:39:28.964Z,26.50
2023-01-17T02:42:03.424Z,26.50
2023-01-17T02:44:40.220Z,26.50
2023-01-17T02:47:28.253Z,26.50
2023-01-17T02:50:07.098Z,26.50
2023-01-17T02:53:05.528Z,26.50
2023-01-17T02:55:57.878Z,26.40
2023-01-17T02:58:50.279Z,26.40
2023-01-17T03:01:21.624Z,26.40
2023-01-17T03:04:00.438Z,26.40
2023-01-17T03:06:59.184Z,26.40
2023-01-17T03:09:28.729Z,26.30
2023-01-17T03:11:58.342Z,26.30
2023-01-17T03:14:26.772Z,26.20
2023-01-17T03:16:54.851Z,26.30
2023-01-17T03:19:23.134Z,26.30
2023-01-17T03:21:51.288Z,26.30
2023-01-17T03:24:19.521Z,26.30
2023-01-17T03:26:47.889Z,26.30
2023-01-17T03:29:16.961Z,26.20
2023-01-17T03:31:45.337Z,26.20
2023-01-17T03:34:14.263Z,26.20
2023-01-17T03:36:42.607Z,26.20
2023-01-17T03:39:10.687Z,26.20
2023-01-17T03:41:39.084Z,26.20
2023-01-17T03:44:07.229Z,26.20
2023-01-17T03:46:35.555Z,26.20
2023-01-17T03:49:03.901Z,26.20
2023-01-17T03:51:32.006Z,26.20
2023-01-17T03:54:00.240Z,26.20
2023-01-17T03:56:28.469Z,26.20
2023-01-17T03:58:56.967Z,26.10
2023-01-17T04:01:25.975Z,26.20
2023-01-17T04:03:54.217Z,26.10
2023-01-17T04:06:22.505Z,26.10
2023-01-17T04:08:50.644Z,26.10
2023-01-17T04:11:18.943Z,26.10
2023-01-17T04:13:47.179Z,26.10
2023-01-17T04:16:18.083Z,26.10
2023-01-17T04:18:46.536Z,26.10
2023-01-17T04:21:14.849Z,26.10
2023-01-17T04:23:43.089Z,26.10
2023-01-17T04:26:13.264Z,26.10
2023-01-17T04:28:41.538Z,26.10
2023-01-17T04:31:17.435Z,26.10
2023-01-17T04:33:45.815Z,26.10
2023-01-17T04:36:14.071Z,26.10
2023-01-17T04:38:42.263Z,26.10
2023-01-17T04:41:10.450Z,26.20
2023-01-17T04:43:38.690Z,26.10
2023-01-17T04:46:07.192Z,26.10
2023-01-17T04:48:35.366Z,26.10
2023-01-17T04:51:05.106Z,26.10
2023-01-17T04:53:33.495Z,26.10
2023-01-17T04:56:01.731Z,26.20
2023-01-17T04:58:30.355Z,26.10
2023-01-17T05:01:06.336Z,26.10
2023-01-17T05:03:35.477Z,26.10
2023-01-17T05:06:03.814Z,26.10
2023-01-17T05:08:31.994Z,26.10
2023-01-17T05:11:00.323Z,26.10
2023-01-17T05:13:28.535Z,26.10
2023-01-17T05:15:58.744Z,26.10
2023-01-17T05:18:27.009Z,26.00
2023-01-17T05:20:55.341Z,26.10
2023-01-17T05:23:23.559Z,26.10
2023-01-17T05:25:51.644Z,26.00
2023-01-17T05:28:20.097Z,26.00
2023-01-17T05:30:48.333Z,26.00
2023-01-17T05:33:16.535Z,26.00
2023-01-17T05:35:44.754Z,26.00
2023-01-17T05:38:12.924Z,25.90
2023-01-17T05:40:41.201Z,26.00
2023-01-17T05:43:09.710Z,26.00
2023-01-17T05:45:38.045Z,25.90
2023-01-17T05:48:06.576Z,25.90
2023-01-17T05:50:37.221Z,25.90
2023-01-17T05:53:12.275Z,25.90
2023-01-17T05:55:41.543Z,25.90
2023-01-17T05:58:18.290Z,25.90
2023-01-17T06:00:46.819Z,25.90
2023-01-17T06:03:15.442Z,25.90
2023-01-17T06:05:43.791Z,25.80
2023-01-17T06:08:12.231Z,25.80
2023-01-17T06:10:40.915Z,25.70
2023-01-17T06:13:12.338Z,25.70
2023-01-17T06:15:40.738Z,25.60
2023-01-17T06:18:13.858Z,25.60
2023-01-17T06:20:42.699Z,25.60
2023-01-17T06:23:15.251Z,25.70
2023-01-17T06:25:45.524Z,25.70
2023-01-17T06:28:16.255Z,25.70
2023-01-17T06:30:44.842Z,25.70
2023-01-17T06:33:14.415Z,25.70
2023-01-17T06:35:52.913Z,25.60
2023-01-17T06:38:21.525Z,25.70
2023-01-17T06:40:49.741Z,25.70
2023-01-17T06:43:18.082Z,25.70
2023-01-17T06:45:46.304Z,25.60
2023-01-17T06:48:14.709Z,25.60
2023-01-17T06:50:42.989Z,25.70
2023-01-17T06:53:11.256Z,25.70
2023-01-17T06:55:39.824Z,25.60
2023-01-17T06:58:09.274Z,25.60
2023-01-17T07:00:40.344Z,25.60
2023-01-17T07:03:24.215Z,25.60
2023-01-17T07:05:53.503Z,25.60
2023-01-17T07:08:21.832Z,25.70
2023-01-17T07:10:50.287Z,25.70
2023-01-17T07:13:18.442Z,25.70
2023-01-17T07:15:46.774Z,25.70
2023-01-17T07:18:15.174Z,25.60
2023-01-17T07:20:44.298Z,25.70
2023-01-17T07:23:12.803Z,25.60
2023-01-17T07:25:40.954Z,25.60
2023-01-17T07:28:09.450Z,25.60
2023-01-17T07:30:37.635Z,25.70
2023-01-17T07:33:05.856Z,25.70
2023-01-17T07:35:34.179Z,25.70
2023-01-17T07:38:02.503Z,25.70
2023-01-17T07:40:31.176Z,25.80
2023-01-17T07:43:04.366Z,25.80
2023-01-17T07:45:32.241Z,25.80
2023-01-17T07:48:00.442Z,25.80
2023-01-17T07:50:28.656Z,25.90
2023-01-17T07:52:57.013Z,25.90
2023-01-17T07:55:25.307Z,25.90
2023-01-17T07:57:53.933Z,25.90
2023-01-17T08:00:22.695Z,25.90
2023-01-17T08:02:51.014Z,25.90
2023-01-17T08:05:19.259Z,25.90
2023-01-17T08:07:47.467Z,25.90
2023-01-17T08:10:15.939Z,25.90
2023-01-17T08:12:50.853Z,26.00
2023-01-17T08:15:19.834Z,26.00
2023-01-17T08:17:49.513Z,26.10
2023-01-17T08:20:18.023Z,26.10
2023-01-17T08:22:46.699Z,26.10
2023-01-17T08:25:14.995Z,26.20
2023-01-17T08:27:43.363Z,26.20
2023-01-17T08:30:12.001Z,26.30
2023-01-17T08:32:40.281Z,26.30
2023-01-17T08:35:09.692Z,26.30
2023-01-17T08:37:37.948Z,26.40
2023-01-17T08:40:07.617Z,26.40
2023-01-17T08:42:37.209Z,26.50
2023-01-17T08:45:07.845Z,26.60
2023-01-17T08:47:36.501Z,26.60
2023-01-17T08:50:07.114Z,26.60
2023-01-17T08:52:35.613Z,26.70
2023-01-17T08:55:04.758Z,26.70
2023-01-17T08:57:33.550Z,26.80
2023-01-17T09:00:01.863Z,26.80
2023-01-17T09:02:30.187Z,26.90
2023-01-17T09:04:58.275Z,26.90
2023-01-17T09:07:26.448Z,27.00
2023-01-17T09:09:54.844Z,27.10
2023-01-17T09:12:23.050Z,27.10
2023-01-17T09:14:51.405Z,27.20
2023-01-17T09:17:19.569Z,27.30
2023-01-17T09:19:50.538Z,27.30
2023-01-17T09:22:18.920Z,27.40
2023-01-17T09:24:47.052Z,27.40
2023-01-17T09:27:15.366Z,27.50
2023-01-17T09:29:43.545Z,27.60
2023-01-17T09:32:11.763Z,27.70
2023-01-17T09:34:40.155Z,27.70
2023-01-17T09:37:08.333Z,27.80
2023-01-17T09:39:36.637Z,27.90
2023-01-17T09:42:36.375Z,27.90
2023-01-17T09:45:05.464Z,28.00
2023-01-17T09:47:45.529Z,28.10
2023-01-17T09:50:32.372Z,28.10
2023-01-17T09:53:21.079Z,28.20
2023-01-17T09:56:15.224Z,28.20
2023-01-17T09:59:10.954Z,28.30
2023-01-17T10:01:46.725Z,28.40
2023-01-17T10:04:28.685Z,28.50
2023-01-17T10:07:23.116Z,28.50
2023-01-17T10:10:10.755Z,28.60
2023-01-17T10:12:56.872Z,28.60
2023-01-17T10:15:37.706Z,28.60
2023-01-17T10:18:30.738Z,28.70
2023-01-17T10:21:22.259Z,28.70
2023-01-17T10:24:11.702Z,28.70
2023-01-17T10:26:40.224Z,28.80
2023-01-17T10:29:15.686Z,28.90
2023-01-17T10:32:00.340Z,28.90
2023-01-17T10:34:40.661Z,29.10
2023-01-17T10:37:21.664Z,29.20
2023-01-17T10:39:51.300Z,29.20
2023-01-17T10:42:44.366Z,29.30
2023-01-17T10:45:23.112Z,29.30
2023-01-17T10:48:12.064Z,29.30
2023-01-17T10:51:07.294Z,29.40
2023-01-17T10:53:55.739Z,29.40
2023-01-17T10:56:29.007Z,29.40
2023-01-17T10:59:34.759Z,29.40
2023-01-17T11:02:03.374Z,29.50
2023-01-17T11:04:42.810Z,29.50
2023-01-17T11:07:20.055Z,29.50
2023-01-17T11:09:53.323Z,29.50
2023-01-17T11:12:28.405Z,29.60
2023-01-17T11:15:16.544Z,29.60
2023-01-17T11:17:50.792Z,29.70
2023-01-17T11:20:35.632Z,29.80
2023-01-17T11:23:13.321Z,29.80
2023-01-17T11:25:49.734Z,29.80
2023-01-17T11:28:28.711Z,29.90
2023-01-17T11:31:01.025Z,30.00
2023-01-17T11:33:40.206Z,30.10
2023-01-17T11:36:22.514Z,30.20
2023-01-17T11:39:02.512Z,30.20
2023-01-17T11:41:39.489Z,30.10
2023-01-17T11:44:30.595Z,30.20
2023-01-17T11:47:16.025Z,30.20
2023-01-17T11:49:46.743Z,30.30
2023-01-17T11:52:26.907Z,30.30
2023-01-17T11:54:56.413Z,30.30
2023-01-17T11:57:24.896Z,30.30
2023-01-17T12:00:02.295Z,30.30
2023-01-17T12:02:58.178Z,30.30
2023-01-17T12:06:07.976Z,30.40
2023-01-17T12:09:06.524Z,30.40
2023-01-17T12:12:05.223Z,30.50
2023-01-17T12:14:53.722Z,30.50
2023-01-17T12:17:50.758Z,30.40
2023-01-17T12:20:42.861Z,30.50
2023-01-17T12:23:22.910Z,30.80
2023-01-17T12:25:59.411Z,30.80
2023-01-17T12:28:45.446Z,30.90
2023-01-17T12:31:55.185Z,30.90
2023-01-17T12:34:33.394Z,31.00
2023-01-17T12:37:12.555Z,31.00
2023-01-17T12:39:46.428Z,31.00
2023-01-17T12:42:27.692Z,31.00
2023-01-17T12:45:45.205Z,31.00
2023-01-17T12:48:24.487Z,31.00
2023-01-17T12:51:04.809Z,31.00
2023-01-17T12:53:40.115Z,30.80
2023-01-17T12:56:23.983Z,30.80
2023-01-17T12:59:14.378Z,30.80
2023-01-17T13:01:46.819Z,30.90
2023-01-17T13:04:30.428Z,31.00
2023-01-17T13:07:20.519Z,30.80
2023-01-17T13:09:55.462Z,30.70
2023-01-17T13:12:25.706Z,30.80
2023-01-17T13:14:54.337Z,30.90
2023-01-17T13:17:38.273Z,31.00
2023-01-17T13:20:33.404Z,31.10
2023-01-17T13:23:33.974Z,31.30
2023-01-17T13:26:03.879Z,31.40
2023-01-17T13:28:49.799Z,31.30
2023-01-17T13:31:47.194Z,31.10
2023-01-17T13:34:28.438Z,31.10
2023-01-17T13:37:15.127Z,31.00
2023-01-17T13:40:05.765Z,31.10
2023-01-17T13:43:03.025Z,31.10
2023-01-17T13:45:34.811Z,31.20
2023-01-17T13:48:18.442Z,31.30
2023-01-17T13:50:55.146Z,31.20
2023-01-17T13:53:35.371Z,31.20
2023-01-17T13:56:26.852Z,31.30
2023-01-17T13:58:59.145Z,31.30
2023-01-17T14:01:33.538Z,31.30
2023-01-17T14:04:12.450Z,31.50
2023-01-17T14:07:17.337Z,31.30
2023-01-17T14:09:51.774Z,31.10
2023-01-17T14:12:19.944Z,31.30
2023-01-17T14:14:50.967Z,31.30
2023-01-17T14:17:19.113Z,31.40
2023-01-17T14:19:59.540Z,31.40
2023-01-17T14:22:37.216Z,31.10
2023-01-17T14:25:14.639Z,30.70
2023-01-17T14:27:53.235Z,30.90
2023-01-17T14:30:35.786Z,31.00
2023-01-17T14:33:03.940Z,31.10
2023-01-17T14:35:38.136Z,31.30
2023-01-17T14:38:24.067Z,31.30
2023-01-17T14:41:30.577Z,31.30
2023-01-17T14:43:59.279Z,31.00
2023-01-17T14:46:32.920Z,31.00
2023-01-17T14:49:04.586Z,31.20
2023-01-17T14:51:33.851Z,31.30
2023-01-17T14:54:03.954Z,31.30
2023-01-17T14:56:33.050Z,31.40
2023-01-17T14:59:13.255Z,31.30
2023-01-17T15:01:42.726Z,31.40
2023-01-17T15:04:28.428Z,31.50
2023-01-17T15:06:58.761Z,31.40
2023-01-17T15:09:35.192Z,31.60
2023-01-17T15:12:03.752Z,31.50
2023-01-17T15:14:38.694Z,31.40
2023-01-17T15:17:11.542Z,31.60
2023-01-17T15:19:51.944Z,31.60
2023-01-17T15:22:20.909Z,31.60
2023-01-17T15:24:50.434Z,31.90
2023-01-17T15:27:19.274Z,31.80
2023-01-17T15:29:48.486Z,32.10
2023-01-17T15:32:21.328Z,32.20
2023-01-17T15:34:51.497Z,32.30
2023-01-17T15:37:32.063Z,32.40
2023-01-17T15:40:20.995Z,32.60
2023-01-17T15:42:52.317Z,32.50
2023-01-17T15:45:38.370Z,32.50
2023-01-17T15:48:39.183Z,32.50
2023-01-17T15:51:13.954Z,32.60
2023-01-17T15:53:43.938Z,32.50
2023-01-17T15:56:28.620Z,32.30
2023-01-17T15:59:27.853Z,32.20
2023-01-17T16:01:57.688Z,32.00
2023-01-17T16:04:36.595Z,32.10
2023-01-17T16:07:35.075Z,32.50
2023-01-17T16:10:25.262Z,32.50
2023-01-17T16:12:54.673Z,32.50
2023-01-17T16:15:24.071Z,32.30
2023-01-17T16:17:56.258Z,32.50
2023-01-17T16:20:33.477Z,32.10
2023-01-17T16:23:02.025Z,32.10
2023-01-17T16:25:30.471Z,32.10
2023-01-17T16:27:59.408Z,32.10
2023-01-17T16:30:28.433Z,32.00
2023-01-17T16:32:56.783Z,32.00
2023-01-17T16:35:27.567Z,32.10
2023-01-17T16:37:59.930Z,32.40
2023-01-17T16:40:31.482Z,32.20
2023-01-17T16:43:01.015Z,32.10
2023-01-17T16:45:29.323Z,32.10
2023-01-17T16:47:57.577Z,32.10
2023-01-17T16:50:26.408Z,32.10
2023-01-17T16:52:55.623Z,32.30
2023-01-17T16:55:25.584Z,32.20
2023-01-17T16:57:57.413Z,32.40
2023-01-17T17:00:25.973Z,32.20
2023-01-17T17:02:54.926Z,32.20
2023-01-17T17:05:23.338Z,32.50
2023-01-17T17:07:51.903Z,32.30
2023-01-17T17:10:22.374Z,32.20
2023-01-17T17:12:50.760Z,32.00
2023-01-17T17:15:19.141Z,31.90
2023-01-17T17:17:47.296Z,31.40
2023-01-17T17:20:16.629Z,31.20
2023-01-17T17:22:50.175Z,31.10
2023-01-17T17:25:19.250Z,30.60
2023-01-17T17:27:47.647Z,30.60
2023-01-17T17:30:16.075Z,30.50
2023-01-17T17:32:49.534Z,30.40
2023-01-17T17:35:17.953Z,30.20
2023-01-17T17:37:46.321Z,30.10
2023-01-17T17:40:14.512Z,30.00
2023-01-17T17:42:43.830Z,30.00
2023-01-17T17:45:12.372Z,29.80
2023-01-17T17:47:40.545Z,29.60
2023-01-17T17:50:09.639Z,29.70
2023-01-17T17:52:37.823Z,29.70
2023-01-17T17:55:06.615Z,29.60
2023-01-17T17:57:34.979Z,29.50
2023-01-17T18:00:05.026Z,29.60
2023-01-17T18:02:34.521Z,29.60
2023-01-17T18:05:02.724Z,29.40
2023-01-17T18:07:34.380Z,29.30
2023-01-17T18:10:02.579Z,29.30
2023-01-17T18:12:30.834Z,29.20
2023-01-17T18:14:58.948Z,29.30
2023-01-17T18:17:27.164Z,29.30
2023-01-17T18:19:55.572Z,29.30
2023-01-17T18:22:23.791Z,29.20
2023-01-17T18:28:55.824Z,29.10
2023-01-17T18:31:25.114Z,28.90
2023-01-17T18:33:57.096Z,28.80
2023-01-17T18:36:26.947Z,28.90
2023-01-17T18:38:55.946Z,28.80
2023-01-17T18:41:33.085Z,28.80
2023-01-17T18:44:05.399Z,28.80
2023-01-17T18:46:34.558Z,28.80
2023-01-17T18:49:03.621Z,28.70
2023-01-17T18:51:33.812Z,28.60
2023-01-17T18:54:02.817Z,28.70
2023-01-17T18:56:32.972Z,28.60
2023-01-17T18:59:01.759Z,28.60
2023-01-17T19:01:33.719Z,28.60
2023-01-17T19:04:05.270Z,28.50
2023-01-17T19:06:39.436Z,28.50
2023-01-17T19:09:09.413Z,28.40
2023-01-17T19:11:37.838Z,28.40
2023-01-17T19:14:07.419Z,28.40
2023-01-17T19:16:39.579Z,28.40
2023-01-17T19:19:11.753Z,28.30
2023-01-17T19:21:40.066Z,28.30
2023-01-17T19:24:08.894Z,28.30
2023-01-17T19:26:37.983Z,28.40
2023-01-17T19:29:06.306Z,28.40
2023-01-17T19:31:38.675Z,28.30
2023-01-17T19:34:06.944Z,28.40
2023-01-17T19:36:37.531Z,28.30
2023-01-17T19:39:07.969Z,28.30
2023-01-17T19:41:41.210Z,28.20
2023-01-17T19:44:10.894Z,28.20
2023-01-17T19:46:39.368Z,28.20
2023-01-17T19:49:09.590Z,28.20
2023-01-17T19:51:38.301Z,28.30
2023-01-17T19:54:06.536Z,28.30
2023-01-17T19:56:35.080Z,28.20
2023-01-17T19:59:03.591Z,28.20
2023-01-17T20:01:33.948Z,28.20
2023-01-17T20:04:03.525Z,28.20
2023-01-17T20:06:34.679Z,28.20
2023-01-17T20:09:03.995Z,28.20
2023-01-17T20:11:32.282Z,28.20
2023-01-17T20:14:01.026Z,28.20
2023-01-17T20:16:31.512Z,28.20
2023-01-17T20:19:00.843Z,28.20
2023-01-17T20:21:30.510Z,28.10
2023-01-17T20:24:00.444Z,28.20
2023-01-17T20:26:30.988Z,28.10
2023-01-17T20:28:59.505Z,28.10
2023-01-17T20:31:28.159Z,28.10
2023-01-17T20:33:57.191Z,28.10
2023-01-17T20:36:27.116Z,28.10
2023-01-17T20:38:55.740Z,28.10
2023-01-17T20:41:26.368Z,28.10
2023-01-17T20:43:56.815Z,28.10
2023-01-17T20:46:27.549Z,28.10
2023-01-17T20:48:57.896Z,28.10
2023-01-17T20:51:28.578Z,28.10
2023-01-17T20:53:59.719Z,28.10
2023-01-17T20:56:28.371Z,28.10
2023-01-17T20:58:56.943Z,28.00
2023-01-17T21:01:25.383Z,28.00
2023-01-17T21:03:54.173Z,28.00
2023-01-17T21:06:23.629Z,28.00
2023-01-17T21:08:52.730Z,27.90
2023-01-17T21:11:24.219Z,27.90
2023-01-17T21:13:52.864Z,27.90
2023-01-17T21:16:22.541Z,27.90
2023-01-17T21:18:52.036Z,27.90
2023-01-17T21:21:23.036Z,27.90
2023-01-17T21:23:54.319Z,27.90
2023-01-17T21:26:23.856Z,27.90
2023-01-17T21:28:53.099Z,27.90
2023-01-17T21:31:30.510Z,27.90
2023-01-17T21:34:00.208Z,28.00
2023-01-17T21:36:47.642Z,27.90
2023-01-17T21:39:19.418Z,27.90
2023-01-17T21:41:49.223Z,27.90
2023-01-17T21:44:23.037Z,27.90
2023-01-17T21:46:52.999Z,27.90
2023-01-17T21:49:23.578Z,27.80
2023-01-17T21:51:51.899Z,27.80
2023-01-17T21:54:25.260Z,27.80
2023-01-17T21:56:53.623Z,27.80
2023-01-17T21:59:21.767Z,27.80
2023-01-17T22:01:50.313Z,27.80
2023-01-17T22:04:19.147Z,27.80
2023-01-17T22:06:47.649Z,27.80
2023-01-17T22:09:15.959Z,27.90
2023-01-17T22:11:44.195Z,27.80
2023-01-17T22:14:12.550Z,27.80
2023-01-17T22:16:40.842Z,27.80
2023-01-17T22:19:09.199Z,27.90
2023-01-17T22:21:37.489Z,27.90
2023-01-17T22:24:06.319Z,27.80
2023-01-17T22:26:34.546Z,27.80
2023-01-17T22:29:03.192Z,27.80
2023-01-17T22:31:32.058Z,27.80
2023-01-17T22:34:03.146Z,27.80
2023-01-17T22:36:35.354Z,27.80
2023-01-17T22:39:03.812Z,27.80
2023-01-17T22:41:32.307Z,27.80
2023-01-17T22:44:02.195Z,27.70
2023-01-17T22:46:32.941Z,27.80
2023-01-17T22:49:01.170Z,27.70
2023-01-17T22:51:29.548Z,27.70
2023-01-17T22:53:59.930Z,27.70
2023-01-17T22:56:33.622Z,27.70
2023-01-17T22:59:02.412Z,27.70
2023-01-17T23:01:32.736Z,27.70
2023-01-17T23:04:04.363Z,27.70
2023-01-17T23:06:34.992Z,27.70
2023-01-17T23:09:13.695Z,27.70
2023-01-17T23:11:50.330Z,27.70
2023-01-17T23:14:23.510Z,27.60
2023-01-17T23:16:54.149Z,27.60
2023-01-17T23:19:22.506Z,27.60
2023-01-17T23:21:59.212Z,27.50
2023-01-17T23:24:27.411Z,27.50
2023-01-17T23:26:55.683Z,27.50
2023-01-17T23:29:24.156Z,27.50
2023-01-17T23:31:52.207Z,27.50
2023-01-17T23:34:21.729Z,27.60
2023-01-17T23:36:50.101Z,27.50
2023-01-17T23:39:18.292Z,27.50
2023-01-17T23:41:46.455Z,27.50
2023-01-17T23:44:14.772Z,27.50
2023-01-17T23:46:42.985Z,27.50
2023-01-17T23:49:11.162Z,27.50
2023-01-17T23:51:39.321Z,27.50
2023-01-17T23:54:07.490Z,27.50
2023-01-17T23:56:37.417Z,27.40
2023-01-17T23:59:05.689Z,27.40
